Time;durP1;ratioP1;P1;durP2;ratioP2;P2;SDS_P1;SDS_P2;PMS_P1;PMS_P2;Temp;Humidity;BMP_temperature;BMP_pressure;BME280_temperature;BME280_humidity;BME280_pressure;Samples;Min_cycle;Max_cycle;Signal;HPM_P1;HPM_P2
2023/03/17 00:00:09;;;;;;;102.80;53.30;;;;;;;-3.62;99.85;98747.64;106133;1254;61133;-80
2023/03/17 00:02:58;;;;;;;126.40;56.70;;;;;;;-3.68;100.00;98744.46;106117;1256;74668;-79
2023/03/17 00:05:35;;;;;;;120.60;55.90;;;;;;;-3.73;100.00;98738.09;106151;1258;69735;-78
2023/03/17 00:08:14;;;;;;;104.20;46.60;;;;;;;-3.72;100.00;98736.27;106127;1256;72645;-79
2023/03/17 00:10:41;;;;;;;113.10;50.30;;;;;;;-3.74;99.54;98744.55;106174;1258;61255;-79
2023/03/17 00:13:09;;;;;;;108.90;45.70;;;;;;;-3.74;97.98;98746.38;106087;1258;60849;-79
2023/03/17 00:15:35;;;;;;;104.60;46.40;;;;;;;-3.78;99.11;98749.45;106114;1256;74438;-79
2023/03/17 00:18:02;;;;;;;118.90;49.30;;;;;;;-3.89;100.00;98746.55;106182;1258;61323;-79
2023/03/17 00:20:30;;;;;;;119.60;51.00;;;;;;;-3.93;100.00;98745.11;106137;1258;72474;-79
2023/03/17 00:23:01;;;;;;;119.50;51.70;;;;;;;-3.95;100.00;98746.91;106100;1256;61175;-79
2023/03/17 00:25:28;;;;;;;116.90;47.60;;;;;;;-3.98;100.00;98743.89;106829;1256;61219;-79
2023/03/17 00:27:57;;;;;;;113.40;48.10;;;;;;;-4.01;99.90;98742.22;106140;1256;74044;-79
2023/03/17 00:30:23;;;;;;;86.00;37.80;;;;;;;-4.02;99.93;98739.16;109242;1255;70359;-80
2023/03/17 00:32:51;;;;;;;98.90;46.30;;;;;;;-4.03;100.00;98738.56;109201;1254;71832;-80
2023/03/17 00:35:22;;;;;;;82.10;39.80;;;;;;;-4.06;100.00;98735.92;109096;1255;58939;-80
2023/03/17 00:37:49;;;;;;;88.20;40.30;;;;;;;-4.07;100.00;98732.16;106260;1256;61143;-78
2023/03/17 00:40:19;;;;;;;88.60;36.60;;;;;;;-4.05;100.00;98729.14;106849;1254;73614;-78
2023/03/17 00:42:45;;;;;;;80.00;37.80;;;;;;;-4.04;100.00;98725.63;106164;1258;71852;-79
2023/03/17 00:45:12;;;;;;;77.30;36.80;;;;;;;-4.02;100.00;98732.84;106023;1259;71411;-78
2023/03/17 00:47:39;;;;;;;89.10;40.70;;;;;;;-4.02;100.00;98734.93;106098;1256;61214;-80
2023/03/17 00:50:08;;;;;;;78.10;37.90;;;;;;;-4.01;100.00;98732.05;106186;1260;61132;-79
2023/03/17 00:52:35;;;;;;;85.30;39.90;;;;;;;-4.04;100.00;98733.44;106140;1256;74950;-78
2023/03/17 00:55:02;;;;;;;78.90;36.10;;;;;;;-4.06;100.00;98734.30;109026;1254;59458;-78
2023/03/17 00:57:28;;;;;;;84.70;36.80;;;;;;;-4.06;100.00;98732.52;109187;1254;71901;-79
2023/03/17 00:59:55;;;;;;;81.10;36.10;;;;;;;-4.08;100.00;98733.00;109126;1256;59173;-80
2023/03/17 01:02:21;;;;;;;95.90;43.30;;;;;;;-4.14;99.97;98731.55;109206;1254;58868;-79
2023/03/17 01:04:48;;;;;;;99.00;41.30;;;;;;;-4.16;100.00;98734.44;109208;1254;73649;-79
2023/03/17 01:07:14;;;;;;;85.40;39.50;;;;;;;-4.17;100.00;98739.51;107356;1256;61111;-78
2023/03/17 01:09:41;;;;;;;78.50;36.80;;;;;;;-4.19;99.59;98738.27;107946;1258;61138;-80
2023/03/17 01:12:11;;;;;;;86.30;42.00;;;;;;;-4.25;99.21;98741.73;106102;1260;61351;-79
2023/03/17 01:14:37;;;;;;;103.90;46.70;;;;;;;-4.31;99.95;98738.12;106116;1256;61133;-79
2023/03/17 01:17:11;;;;;;;97.30;43.10;;;;;;;-4.33;100.00;98740.48;106124;1256;61150;-79
2023/03/17 01:19:38;;;;;;;91.40;42.50;;;;;;;-4.33;100.00;98739.86;106143;1255;70772;-79
2023/03/17 01:22:04;;;;;;;95.40;44.40;;;;;;;-4.36;99.81;98743.68;106186;1258;61282;-80
2023/03/17 01:24:30;;;;;;;92.80;42.40;;;;;;;-4.38;99.66;98743.48;106238;1254;61247;-78
2023/03/17 01:26:57;;;;;;;99.50;46.30;;;;;;;-4.45;100.00;98744.82;106338;1258;63123;-79
2023/03/17 01:29:23;;;;;;;95.80;44.10;;;;;;;-4.52;100.00;98740.42;106370;1256;61303;-78
2023/03/17 01:31:50;;;;;;;83.50;38.70;;;;;;;-4.55;100.00;98741.21;106236;1256;61325;-80
2023/03/17 01:34:16;;;;;;;95.20;42.70;;;;;;;-4.59;99.99;98741.88;106114;1255;61279;-78
2023/03/17 01:36:43;;;;;;;93.20;42.00;;;;;;;-4.65;100.00;98741.16;106151;1256;61335;-77
2023/03/17 01:39:11;;;;;;;92.50;44.80;;;;;;;-4.69;99.91;98735.98;106166;1256;61229;-78
2023/03/17 01:41:38;;;;;;;68.30;32.80;;;;;;;-4.68;100.00;98739.08;106120;1259;74613;-79
2023/03/17 01:44:06;;;;;;;87.00;39.40;;;;;;;-4.70;100.00;98741.23;106069;1254;70419;-80
2023/03/17 01:46:33;;;;;;;88.70;40.60;;;;;;;-4.71;100.00;98742.56;105993;1256;71332;-78
2023/03/17 01:49:03;;;;;;;76.90;34.60;;;;;;;-4.71;100.00;98737.70;105891;1256;290958;-79
2023/03/17 01:51:33;;;;;;;79.10;35.00;;;;;;;-4.71;100.00;98736.39;109236;1254;60874;-79
2023/03/17 01:54:00;;;;;;;82.60;35.20;;;;;;;-4.74;100.00;98728.36;107277;1259;75635;-77
2023/03/17 01:56:27;;;;;;;68.70;33.30;;;;;;;-4.72;100.00;98726.97;108684;1258;70237;-79
2023/03/17 01:58:54;;;;;;;64.20;30.90;;;;;;;-4.70;100.00;98734.12;108984;1254;72103;-79
2023/03/17 02:01:22;;;;;;;83.70;36.20;;;;;;;-4.66;100.00;98735.27;109205;1254;58898;-79
2023/03/17 02:03:50;;;;;;;72.10;32.00;;;;;;;-4.64;100.00;98734.73;106705;1256;61331;-78
2023/03/17 02:06:17;;;;;;;66.60;32.20;;;;;;;-4.61;100.00;98731.02;106101;1260;74546;-78
2023/03/17 02:08:43;;;;;;;66.90;31.10;;;;;;;-4.59;100.00;98729.27;106129;1256;61149;-78
2023/03/17 02:11:09;;;;;;;58.10;30.60;;;;;;;-4.57;100.00;98727.23;106123;1256;61286;-78
2023/03/17 02:13:36;;;;;;;66.10;31.40;;;;;;;-4.58;100.00;98727.66;106133;1261;61354;-78
2023/03/17 02:16:03;;;;;;;65.60;30.80;;;;;;;-4.59;100.00;98724.59;106141;1256;61258;-78
2023/03/17 02:18:29;;;;;;;54.90;28.50;;;;;;;-4.61;100.00;98719.88;106141;1254;61248;-77
2023/03/17 02:20:55;;;;;;;58.50;28.90;;;;;;;-4.61;100.00;98714.84;106135;1255;61363;-77
2023/03/17 02:23:22;;;;;;;70.30;31.50;;;;;;;-4.64;100.00;98711.98;106152;1256;61692;-78
2023/03/17 02:25:49;;;;;;;53.60;26.60;;;;;;;-4.66;100.00;98712.29;106169;1259;61330;-80
2023/03/17 02:28:17;;;;;;;62.60;31.70;;;;;;;-4.67;100.00;98707.54;106220;1256;61265;-80
2023/03/17 02:30:44;;;;;;;52.70;24.70;;;;;;;-4.66;100.00;98703.50;106163;1254;74321;-82
2023/03/17 02:33:11;;;;;;;50.10;25.60;;;;;;;-4.64;100.00;98702.77;106136;1258;61108;-79
2023/03/17 02:35:38;;;;;;;57.60;27.10;;;;;;;-4.65;100.00;98697.31;106113;1256;72950;-79
2023/03/17 02:38:05;;;;;;;56.80;26.70;;;;;;;-4.65;100.00;98699.20;106112;1258;61187;-79
2023/03/17 02:40:32;;;;;;;59.10;24.60;;;;;;;-4.67;100.00;98705.13;106149;1256;61252;-78
2023/03/17 02:42:58;;;;;;;55.70;26.20;;;;;;;-4.67;100.00;98704.94;106172;1256;73835;-79
2023/03/17 02:45:26;;;;;;;52.20;26.00;;;;;;;-4.65;100.00;98702.41;106113;1258;69845;-80
2023/03/17 02:47:52;;;;;;;56.50;29.10;;;;;;;-4.67;100.00;98699.80;106120;1257;71584;-78
2023/03/17 02:50:21;;;;;;;60.20;28.20;;;;;;;-4.69;100.00;98695.55;106123;1259;61363;-78
2023/03/17 02:52:49;;;;;;;45.10;23.00;;;;;;;-4.67;100.00;98695.31;106161;1256;62130;-78
2023/03/17 02:55:15;;;;;;;45.50;23.50;;;;;;;-4.68;100.00;98695.84;106169;1257;74629;-79
2023/03/17 02:57:42;;;;;;;59.20;25.60;;;;;;;-4.70;100.00;98691.16;106127;1254;71214;-78
2023/03/17 03:00:09;;;;;;;47.90;23.40;;;;;;;-4.72;100.00;98689.41;106085;1257;61437;-79
2023/03/17 03:02:36;;;;;;;58.80;25.20;;;;;;;-4.75;100.00;98681.46;106105;1260;61212;-78
2023/03/17 03:05:04;;;;;;;49.90;26.00;;;;;;;-4.77;100.00;98682.55;106142;1256;61226;-78
2023/03/17 03:07:31;;;;;;;49.90;28.70;;;;;;;-4.79;100.00;98683.41;106127;1258;74779;-78
2023/03/17 03:09:58;;;;;;;61.40;29.90;;;;;;;-4.79;100.00;98685.58;106117;1254;70775;-78
2023/03/17 03:12:24;;;;;;;66.00;30.90;;;;;;;-4.81;100.00;98686.67;106094;1254;61177;-78
2023/03/17 03:14:51;;;;;;;60.00;29.00;;;;;;;-4.85;100.00;98681.11;106124;1256;61289;-79
2023/03/17 03:17:17;;;;;;;57.20;25.70;;;;;;;-4.86;100.00;98685.46;106126;1258;61102;-78
2023/03/17 03:19:44;;;;;;;50.90;25.30;;;;;;;-4.88;100.00;98687.80;106180;1260;73975;-81
2023/03/17 03:22:10;;;;;;;61.90;28.30;;;;;;;-4.91;100.00;98677.69;106187;1259;61269;-78
2023/03/17 03:24:37;;;;;;;53.30;23.00;;;;;;;-4.92;100.00;98671.61;106179;1258;61286;-81
2023/03/17 03:27:03;;;;;;;63.10;30.20;;;;;;;-4.92;100.00;98673.53;106216;1256;61346;-79
2023/03/17 03:29:30;;;;;;;43.60;23.90;;;;;;;-4.88;100.00;98674.55;106161;1263;61375;-79
2023/03/17 03:31:56;;;;;;;55.20;26.40;;;;;;;-4.87;100.00;98671.98;106150;1258;61232;-78
2023/03/17 03:34:22;;;;;;;49.70;25.90;;;;;;;-4.88;100.00;98667.61;106087;1254;61340;-79
2023/03/17 03:36:49;;;;;;;45.70;23.30;;;;;;;-4.88;100.00;98658.88;106111;1258;61322;-78
2023/03/17 03:39:15;;;;;;;53.90;24.70;;;;;;;-4.89;100.00;98657.48;106102;1259;61328;-78
2023/03/17 03:41:42;;;;;;;52.10;24.20;;;;;;;-4.87;100.00;98660.45;106184;1256;61440;-78
2023/03/17 03:44:08;;;;;;;61.70;29.60;;;;;;;-4.82;100.00;98664.73;106087;1256;61270;-79
2023/03/17 03:46:34;;;;;;;52.00;27.40;;;;;;;-4.79;100.00;98670.42;106101;1258;61277;-78
2023/03/17 03:49:01;;;;;;;51.30;25.70;;;;;;;-4.75;100.00;98670.59;106087;1256;61241;-78
2023/03/17 03:51:27;;;;;;;66.20;28.80;;;;;;;-4.72;100.00;98675.50;106148;1254;61089;-78
2023/03/17 03:53:53;;;;;;;65.10;29.40;;;;;;;-4.76;100.00;98674.82;106137;1259;61349;-78
2023/03/17 03:56:20;;;;;;;61.70;31.70;;;;;;;-4.83;100.00;98676.71;106127;1258;61751;-78
2023/03/17 03:58:46;;;;;;;65.40;31.70;;;;;;;-4.87;100.00;98678.71;106045;1258;61248;-79
2023/03/17 04:01:13;;;;;;;78.50;32.30;;;;;;;-4.91;100.00;98676.06;106075;1259;61320;-79
2023/03/17 04:03:40;;;;;;;56.20;29.20;;;;;;;-4.96;100.00;98676.83;108706;1254;59170;-78
2023/03/17 04:06:06;;;;;;;63.00;28.70;;;;;;;-5.02;100.00;98671.09;109216;1255;58981;-78
2023/03/17 04:08:33;;;;;;;60.50;27.90;;;;;;;-5.08;100.00;98676.23;106913;1258;61367;-79
2023/03/17 04:10:59;;;;;;;63.10;28.30;;;;;;;-5.09;100.00;98672.96;106148;1258;61252;-78
2023/03/17 04:13:25;;;;;;;61.30;29.40;;;;;;;-5.10;100.00;98676.37;106128;1260;61286;-79
2023/03/17 04:15:52;;;;;;;54.20;28.70;;;;;;;-5.11;100.00;98677.20;106099;1259;61344;-79
2023/03/17 04:18:19;;;;;;;61.00;28.40;;;;;;;-5.13;100.00;98671.06;106110;1259;61213;-80
2023/03/17 04:20:45;;;;;;;56.60;28.30;;;;;;;-5.17;100.00;98669.72;106073;1255;61650;-78
2023/03/17 04:23:12;;;;;;;60.70;27.40;;;;;;;-5.26;100.00;98672.65;106160;1254;59933;-78
2023/03/17 04:25:38;;;;;;;61.10;28.20;;;;;;;-5.29;100.00;98686.79;106194;1259;61930;-79
2023/03/17 04:28:05;;;;;;;57.30;29.40;;;;;;;-5.30;100.00;98685.56;106278;1253;61350;-79
2023/03/17 04:30:31;;;;;;;59.00;28.90;;;;;;;-5.33;100.00;98680.59;107614;1253;59844;-79
2023/03/17 04:32:58;;;;;;;57.10;28.00;;;;;;;-5.35;100.00;98686.84;109416;1253;59458;-79
2023/03/17 04:35:25;;;;;;;70.60;33.50;;;;;;;-5.39;100.00;98688.27;108067;1256;59255;-81
2023/03/17 04:37:52;;;;;;;73.40;34.40;;;;;;;-5.41;100.00;98694.11;106260;1259;61288;-78
2023/03/17 04:40:18;;;;;;;71.70;41.40;;;;;;;-5.41;100.00;98698.30;108006;1253;61191;-79
2023/03/17 04:42:45;;;;;;;69.70;32.40;;;;;;;-5.40;100.00;98697.38;109382;1253;58876;-78
2023/03/17 04:45:13;;;;;;;73.00;37.20;;;;;;;-5.43;100.00;98697.45;109412;1253;60180;-80
2023/03/17 04:47:40;;;;;;;48.60;25.00;;;;;;;-5.40;100.00;98702.83;109188;1254;70529;-80
2023/03/17 04:50:07;;;;;;;60.40;30.70;;;;;;;-5.38;100.00;98697.36;109167;1255;72893;-79
2023/03/17 04:52:35;;;;;;;64.50;27.40;;;;;;;-5.33;100.00;98698.55;107676;1259;59079;-79
2023/03/17 04:55:02;;;;;;;53.90;28.00;;;;;;;-5.28;100.00;98698.02;106135;1262;61317;-78
2023/03/17 04:57:29;;;;;;;54.20;28.50;;;;;;;-5.23;100.00;98698.91;107415;1254;75155;-78
2023/03/17 04:59:56;;;;;;;60.30;28.30;;;;;;;-5.18;100.00;98696.11;106107;1256;70568;-79
2023/03/17 05:02:23;;;;;;;57.60;29.40;;;;;;;-5.17;100.00;98695.25;106108;1259;72561;-79
2023/03/17 05:04:49;;;;;;;48.30;26.40;;;;;;;-5.16;100.00;98686.73;106123;1254;62863;-78
2023/03/17 05:07:16;;;;;;;53.70;28.80;;;;;;;-5.16;100.00;98683.71;106116;1258;61301;-80
2023/03/17 05:09:42;;;;;;;57.10;26.50;;;;;;;-5.15;100.00;98681.43;106125;1258;73647;-79
2023/03/17 05:12:09;;;;;;;59.50;26.30;;;;;;;-5.11;100.00;98679.83;106092;1258;61085;-78
2023/03/17 05:14:36;;;;;;;44.30;23.10;;;;;;;-5.10;100.00;98682.17;106130;1259;72437;-78
2023/03/17 05:17:02;;;;;;;52.00;25.00;;;;;;;-5.08;100.00;98686.90;106222;1258;61347;-79
2023/03/17 05:19:29;;;;;;;48.40;23.00;;;;;;;-5.05;100.00;98685.73;106170;1257;61231;-78
2023/03/17 05:21:55;;;;;;;59.00;26.40;;;;;;;-5.02;100.00;98688.23;106174;1259;61347;-78
2023/03/17 05:24:22;;;;;;;42.10;20.80;;;;;;;-4.98;100.00;98684.27;106213;1259;61273;-78
2023/03/17 05:26:48;;;;;;;42.00;22.20;;;;;;;-4.94;100.00;98688.60;106230;1259;61339;-79
2023/03/17 05:29:14;;;;;;;50.90;24.40;;;;;;;-4.91;100.00;98689.32;106275;1254;61231;-78
2023/03/17 05:31:42;;;;;;;42.00;21.50;;;;;;;-4.85;100.00;98690.98;106215;1255;61353;-80
2023/03/17 05:34:08;;;;;;;54.60;23.70;;;;;;;-4.78;100.00;98699.23;106316;1258;74347;-78
2023/03/17 05:36:35;;;;;;;41.60;20.70;;;;;;;-4.70;100.00;98696.64;106215;1257;61455;-79
2023/03/17 05:39:03;;;;;;;46.80;21.00;;;;;;;-4.64;100.00;98699.50;106165;1258;72924;-80
2023/03/17 05:41:29;;;;;;;36.90;20.40;;;;;;;-4.58;100.00;98702.67;106799;1255;61312;-79
2023/03/17 05:43:55;;;;;;;52.00;22.10;;;;;;;-4.51;100.00;98707.59;106266;1260;61271;-80
2023/03/17 05:46:22;;;;;;;48.10;24.70;;;;;;;-4.46;100.00;98707.35;106212;1258;61691;-79
2023/03/17 05:48:48;;;;;;;47.50;24.20;;;;;;;-4.39;100.00;98711.70;106235;1264;61350;-79
2023/03/17 05:51:14;;;;;;;59.00;26.50;;;;;;;-4.31;100.00;98705.88;106374;1255;61291;-80
2023/03/17 05:53:41;;;;;;;36.00;21.00;;;;;;;-4.24;100.00;98698.79;106196;1259;61397;-80
2023/03/17 05:56:08;;;;;;;50.50;24.40;;;;;;;-4.17;100.00;98704.52;106236;1260;61458;-77
2023/03/17 05:58:34;;;;;;;56.80;25.90;;;;;;;-4.12;100.00;98705.73;106186;1254;61265;-78
2023/03/17 06:01:00;;;;;;;64.80;28.40;;;;;;;-4.04;100.00;98708.20;106231;1254;61238;-79
2023/03/17 06:03:27;;;;;;;42.60;24.00;;;;;;;-3.92;100.00;98708.59;106096;1259;61330;-78
2023/03/17 06:05:53;;;;;;;50.50;26.30;;;;;;;-3.82;100.00;98710.55;106071;1254;61254;-79
2023/03/17 06:08:20;;;;;;;53.60;28.50;;;;;;;-3.74;100.00;98716.10;106163;1262;61255;-79
2023/03/17 06:10:46;;;;;;;59.60;29.60;;;;;;;-3.63;100.00;98711.16;106216;1254;61568;-78
2023/03/17 06:13:13;;;;;;;54.90;29.70;;;;;;;-3.50;100.00;98707.92;106302;1258;61338;-79
2023/03/17 06:15:40;;;;;;;57.00;29.70;;;;;;;-3.39;100.00;98706.90;106361;1254;62211;-80
2023/03/17 06:18:07;;;;;;;56.60;28.80;;;;;;;-3.27;100.00;98714.69;107046;1254;61378;-80
2023/03/17 06:20:33;;;;;;;74.20;32.40;;;;;;;-3.15;100.00;98711.36;106256;1254;61334;-79
2023/03/17 06:23:00;;;;;;;70.50;32.90;;;;;;;-3.03;100.00;98717.29;109209;1254;73784;-80
2023/03/17 06:25:26;;;;;;;62.30;30.40;;;;;;;-2.91;100.00;98718.64;106523;1254;61273;-78
2023/03/17 06:27:54;;;;;;;60.40;26.80;;;;;;;-2.78;100.00;98713.86;106205;1254;61375;-80
2023/03/17 06:30:21;;;;;;;48.40;26.50;;;;;;;-2.71;100.00;98715.64;106186;1254;61270;-80
2023/03/17 06:32:47;;;;;;;55.40;28.60;;;;;;;-2.62;100.00;98713.89;106198;1258;61417;-78
2023/03/17 06:35:14;;;;;;;49.60;28.00;;;;;;;-2.46;100.00;98709.79;106180;1258;61336;-79
2023/03/17 06:37:40;;;;;;;54.10;28.40;;;;;;;-2.32;100.00;98706.99;106253;1254;61218;-79
2023/03/17 06:40:09;;;;;;;48.70;24.00;;;;;;;-2.14;100.00;98716.61;106292;1254;60388;-79
2023/03/17 06:42:35;;;;;;;56.50;25.00;;;;;;;-1.93;100.00;98718.64;109124;1254;59811;-78
2023/03/17 06:45:02;;;;;;;51.50;28.30;;;;;;;-1.75;100.00;98715.48;106250;1258;61376;-78
2023/03/17 06:47:29;;;;;;;56.20;27.90;;;;;;;-1.57;100.00;98720.23;106225;1260;74873;-79
2023/03/17 06:49:55;;;;;;;53.60;27.60;;;;;;;-1.39;100.00;98723.31;107572;1254;69535;-78
2023/03/17 06:52:22;;;;;;;49.70;25.40;;;;;;;-1.23;99.89;98721.11;106430;1255;61384;-80
2023/03/17 06:54:48;;;;;;;53.50;25.00;;;;;;;-1.09;99.34;98719.82;106355;1254;61270;-78
2023/03/17 06:57:15;;;;;;;59.50;26.80;;;;;;;-0.94;99.84;98718.84;106147;1254;62272;-79
2023/03/17 06:59:41;;;;;;;53.10;26.10;;;;;;;-0.77;99.87;98713.23;106301;1262;61337;-79
2023/03/17 07:02:10;;;;;;;44.10;22.00;;;;;;;-0.58;99.14;98709.18;106569;1260;61224;-78
2023/03/17 07:04:37;;;;;;;44.70;22.60;;;;;;;-0.40;96.32;98712.61;108156;1260;72472;-79
2023/03/17 07:07:04;;;;;;;39.20;21.40;;;;;;;-0.19;95.71;98711.35;106381;1261;61248;-79
2023/03/17 07:09:33;;;;;;;47.70;21.50;;;;;;;0.26;96.09;98707.62;106390;1254;61350;-80
2023/03/17 07:12:03;;;;;;;54.10;29.80;;;;;;;0.68;96.85;98703.01;106447;1260;74185;-80
2023/03/17 07:14:34;;;;;;;38.40;21.20;;;;;;;1.40;91.34;98707.96;106304;1254;70979;-78
2023/03/17 07:17:04;;;;;;;85.40;50.90;;;;;;;2.57;91.14;98708.07;106443;1255;71459;-78
2023/03/17 07:19:30;;;;;;;44.30;25.80;;;;;;;3.61;84.50;98713.58;106254;1259;62016;-78
2023/03/17 07:21:57;;;;;;;36.90;22.10;;;;;;;4.62;84.41;98706.11;106335;1258;61221;-78
2023/03/17 07:24:23;;;;;;;34.20;20.40;;;;;;;5.41;77.17;98712.53;106327;1259;74898;-78
2023/03/17 07:26:50;;;;;;;35.40;21.80;;;;;;;6.50;88.10;98705.29;106334;1254;70241;-79
2023/03/17 07:29:17;;;;;;;43.60;21.20;;;;;;;7.16;87.32;98701.04;106307;1256;72523;-80
2023/03/17 07:31:43;;;;;;;37.30;21.70;;;;;;;7.66;85.08;98702.79;106290;1257;61337;-80
2023/03/17 07:34:10;;;;;;;27.90;17.70;;;;;;;8.08;82.36;98707.57;106256;1254;61723;-80
2023/03/17 07:36:37;;;;;;;32.30;20.10;;;;;;;8.61;78.14;98702.95;106377;1254;74691;-80
2023/03/17 07:39:04;;;;;;;34.50;20.00;;;;;;;9.00;71.41;98706.29;106314;1256;61154;-79
2023/03/17 07:41:30;;;;;;;25.00;15.70;;;;;;;9.96;74.27;98705.02;106366;1254;71720;-79
2023/03/17 07:43:57;;;;;;;27.40;16.90;;;;;;;10.35;68.80;98709.12;106923;1260;61235;-76
2023/03/17 07:46:23;;;;;;;33.70;18.10;;;;;;;10.50;61.04;98711.04;106518;1260;61258;-77
2023/03/17 07:48:50;;;;;;;26.10;17.90;;;;;;;10.77;52.63;98712.44;106501;1254;61102;-79
2023/03/17 07:51:19;;;;;;;27.40;16.30;;;;;;;11.75;59.17;98706.38;106522;1259;69208;-80
2023/03/17 07:53:46;;;;;;;25.60;15.90;;;;;;;12.09;59.18;98707.55;109186;1254;73738;-78
2023/03/17 07:56:13;;;;;;;28.20;16.70;;;;;;;12.47;54.77;98712.11;109230;1254;58940;-79
2023/03/17 07:58:40;;;;;;;28.80;17.10;;;;;;;12.73;54.60;98704.60;108781;1255;59153;-80
2023/03/17 08:01:07;;;;;;;49.00;30.40;;;;;;;12.73;46.71;98699.79;106383;1261;75798;-79
2023/03/17 08:03:33;;;;;;;54.20;36.90;;;;;;;12.87;40.69;98700.84;106736;1254;69336;-77
2023/03/17 08:06:01;;;;;;;27.10;18.20;;;;;;;13.95;47.24;98697.39;106470;1261;61625;-80
2023/03/17 08:08:28;;;;;;;34.10;16.90;;;;;;;14.17;43.00;98693.65;106361;1254;61253;-78
2023/03/17 08:11:04;;;;;;;23.30;15.70;;;;;;;14.72;44.34;98690.34;106516;1257;59841;-78
2023/03/17 08:13:31;;;;;;;19.80;13.60;;;;;;;15.03;43.36;98687.89;106521;1258;74510;-80
2023/03/17 08:15:57;;;;;;;22.80;14.20;;;;;;;14.99;41.99;98677.91;106271;1260;70439;-77
2023/03/17 08:18:24;;;;;;;18.80;12.00;;;;;;;15.52;39.26;98682.55;106173;1254;61288;-78
2023/03/17 08:20:50;;;;;;;30.00;21.90;;;;;;;14.89;35.18;98683.96;106220;1254;62039;-77
2023/03/17 08:23:18;;;;;;;20.10;16.60;;;;;;;15.22;35.39;98681.14;106323;1254;61202;-77
2023/03/17 08:25:45;;;;;;;17.10;12.40;;;;;;;16.20;34.71;98687.14;106180;1257;73644;-78
2023/03/17 08:28:13;;;;;;;16.80;12.00;;;;;;;17.14;35.41;98677.54;106240;1255;70645;-78
2023/03/17 08:30:41;;;;;;;19.20;11.80;;;;;;;17.97;35.28;98680.32;106163;1260;72849;-79
2023/03/17 08:33:08;;;;;;;13.80;10.80;;;;;;;18.70;34.47;98680.84;106140;1254;61343;-80
2023/03/17 08:35:35;;;;;;;18.30;11.90;;;;;;;18.87;30.62;98683.36;106542;1255;59349;-80
2023/03/17 08:38:03;;;;;;;15.30;9.90;;;;;;;18.16;26.02;98681.22;106115;1260;74879;-79
2023/03/17 08:40:29;;;;;;;19.70;14.50;;;;;;;18.97;27.33;98681.13;106036;1260;69669;-78
2023/03/17 08:42:56;;;;;;;15.50;10.00;;;;;;;20.06;31.52;98679.05;106226;1254;72507;-78
2023/03/17 08:45:22;;;;;;;16.80;10.80;;;;;;;20.80;27.04;98679.54;106319;1254;61256;-78
2023/03/17 08:47:49;;;;;;;13.10;9.30;;;;;;;19.34;27.16;98671.23;106220;1254;61257;-78
2023/03/17 08:50:20;;;;;;;16.70;9.10;;;;;;;19.84;27.39;98679.70;106132;1254;61339;-80
2023/03/17 08:52:47;;;;;;;13.60;8.90;;;;;;;20.07;26.13;98676.52;106740;1254;70577;-78
2023/03/17 08:55:15;;;;;;;12.30;8.50;;;;;;;19.78;26.52;98670.36;106094;1254;71875;-78
2023/03/17 08:57:43;;;;;;;17.80;9.00;;;;;;;19.65;26.79;98674.80;106099;1254;61276;-80
2023/03/17 09:00:10;;;;;;;;;;;;;;;20.55;27.12;98676.33;106312;1254;61122;-80
2023/03/17 09:02:38;;;;;;;18.20;10.50;;;;;;;21.16;27.47;98667.06;106234;1254;74689;-78
2023/03/17 09:05:05;;;;;;;12.70;8.80;;;;;;;22.18;25.60;98665.69;106209;1254;70712;-80
2023/03/17 09:07:32;;;;;;;13.60;7.90;;;;;;;21.74;24.59;98662.98;106191;1260;72519;-78
2023/03/17 09:09:59;;;;;;;14.20;7.70;;;;;;;19.19;25.53;98654.02;106136;1254;61107;-79
2023/03/17 09:12:25;;;;;;;16.30;8.90;;;;;;;17.15;25.39;98656.66;106163;1254;61249;-80
2023/03/17 09:14:52;;;;;;;27.20;13.50;;;;;;;15.07;26.18;98651.06;106111;1254;61263;-78
2023/03/17 09:17:19;;;;;;;16.40;10.20;;;;;;;13.36;27.63;98643.55;106188;1256;70937;-79
2023/03/17 09:19:45;;;;;;;14.40;8.00;;;;;;;12.17;30.05;98642.75;106172;1259;72782;-77
2023/03/17 09:22:13;;;;;;;13.90;7.60;;;;;;;11.28;31.16;98648.11;106122;1254;61349;-77
2023/03/17 09:24:39;;;;;;;17.80;9.40;;;;;;;10.71;32.31;98639.39;106109;1259;61140;-78
2023/03/17 09:27:06;;;;;;;12.90;7.80;;;;;;;10.54;32.62;98636.60;106099;1254;72856;-78
2023/03/17 09:29:32;;;;;;;18.10;12.80;;;;;;;10.34;32.38;98630.56;106067;1254;72043;-79
2023/03/17 09:32:00;;;;;;;99.60;73.20;;;;;;;10.09;32.28;98630.55;106178;1259;61346;-79
2023/03/17 09:34:26;;;;;;;21.70;13.90;;;;;;;9.84;32.29;98632.33;106169;1258;61238;-79
2023/03/17 09:36:53;;;;;;;14.10;9.50;;;;;;;9.47;32.88;98627.70;106174;1254;61276;-79
2023/03/17 09:39:23;;;;;;;16.20;8.80;;;;;;;8.99;33.67;98626.13;106191;1254;74811;-78
2023/03/17 09:41:59;;;;;;;27.50;14.40;;;;;;;8.93;33.83;98621.08;106391;1257;70243;-79
2023/03/17 09:44:44;;;;;;;10.20;5.40;;;;;;;8.84;34.54;98612.88;106050;1254;72523;-80
2023/03/17 09:47:39;;;;;;;52.90;24.60;;;;;;;8.78;34.90;98603.71;106196;1259;61273;-78
2023/03/17 09:50:15;;;;;;;30.40;15.10;;;;;;;8.46;33.93;98605.27;106829;1256;59908;-78
2023/03/17 09:52:42;;;;;;;14.60;8.50;;;;;;;8.56;34.41;98603.16;106434;1260;74011;-80
2023/03/17 09:55:15;;;;;;;9.10;4.90;;;;;;;8.61;33.58;98604.41;106395;1253;70636;-78
2023/03/17 09:57:41;;;;;;;15.40;4.80;;;;;;;8.65;33.58;98602.73;106235;1260;72542;-80
2023/03/17 10:00:16;;;;;;;17.40;7.90;;;;;;;8.64;33.60;98598.45;106244;1260;61321;-79
2023/03/17 10:02:43;;;;;;;23.70;10.90;;;;;;;8.54;33.42;98591.36;106449;1254;62325;-79
2023/03/17 10:05:20;;;;;;;57.30;28.00;;;;;;;8.55;34.37;98583.74;106210;1258;74620;-79
2023/03/17 10:08:14;;;;;;;67.40;33.40;;;;;;;8.36;31.71;98576.83;106312;1254;70727;-79
2023/03/17 10:10:59;;;;;;;66.50;34.10;;;;;;;8.39;32.71;98570.48;106020;1254;71413;-79
2023/03/17 10:13:26;;;;;;;64.70;34.00;;;;;;;8.42;32.61;98570.96;106089;1257;61371;-78
2023/03/17 10:16:10;;;;;;;44.40;22.40;;;;;;;8.49;32.01;98563.22;106105;1254;61500;-78
2023/03/17 10:18:49;;;;;;;9.80;5.70;;;;;;;8.46;30.51;98556.75;106049;1259;73635;-80
2023/03/17 10:21:17;;;;;;;;;;;;;;;8.35;27.34;98563.24;106260;1258;69906;-80
2023/03/17 10:23:43;;;;;;;10.80;4.80;;;;;;;8.47;30.45;98561.78;106248;1253;71441;-78
2023/03/17 10:26:30;;;;;;;12.50;7.10;;;;;;;8.58;31.37;98558.45;106218;1254;61242;-80
2023/03/17 10:28:58;;;;;;;15.20;8.90;;;;;;;8.56;30.30;98553.41;106179;1253;61537;-80
2023/03/17 10:31:31;;;;;;;25.40;11.70;;;;;;;8.62;32.22;98543.58;108247;1254;73028;-78
2023/03/17 10:34:10;;;;;;;19.20;9.70;;;;;;;8.80;32.37;98539.88;109198;1255;70410;-80
2023/03/17 10:36:37;;;;;;;11.30;4.50;;;;;;;8.86;31.82;98538.31;109103;1254;72594;-80
2023/03/17 10:39:05;;;;;;;14.80;7.40;;;;;;;8.98;32.20;98536.38;108911;1253;59166;-80
2023/03/17 10:41:34;;;;;;;12.10;6.60;;;;;;;9.06;32.36;98531.95;109145;1254;60607;-80
2023/03/17 10:44:01;;;;;;;;;;;;;;;9.18;32.48;98526.15;109275;1254;75807;-78
2023/03/17 10:46:29;;;;;;;9.70;4.60;;;;;;;9.30;33.25;98517.33;109095;1255;59033;-78
2023/03/17 10:48:58;;;;;;;10.00;5.40;;;;;;;9.47;32.90;98516.31;107739;1258;74037;-80
2023/03/17 10:51:30;;;;;;;11.20;4.60;;;;;;;9.48;31.20;98511.50;106256;1255;61453;-80
2023/03/17 10:54:02;;;;;;;11.60;5.20;;;;;;;9.59;32.93;98508.11;107772;1254;61263;-79
2023/03/17 10:56:33;;;;;;;9.60;4.90;;;;;;;9.67;31.47;98504.43;106402;1254;73683;-78
2023/03/17 10:59:04;;;;;;;10.60;5.00;;;;;;;9.76;31.76;98502.73;106514;1254;71426;-77
2023/03/17 11:01:39;;;;;;;11.00;5.00;;;;;;;9.92;32.37;98500.83;106166;1254;72642;-78
2023/03/17 11:04:38;;;;;;;8.60;4.80;;;;;;;10.05;32.50;98495.85;107538;1254;61231;-80
2023/03/17 11:07:08;;;;;;;9.60;5.10;;;;;;;10.10;30.98;98496.40;105820;1254;61474;-79
2023/03/17 11:09:35;;;;;;;7.30;4.30;;;;;;;10.15;31.82;98495.79;106248;1254;73750;-80